Time;durP1;ratioP1;P1;durP2;ratioP2;P2;SDS_P1;SDS_P2;PMS_P1;PMS_P2;Temp;Humidity;BMP_temperature;BMP_pressure;BME280_temperature;BME280_humidity;BME280_pressure;Samples;Min_cycle;Max_cycle;Signal;HPM_P1;HPM_P2
2021/03/25 00:01:09;;;;;;;12.90;11.63;;;4.00;99.90;;;;;;5029774;28;20549;-77
2021/03/25 00:03:37;;;;;;;13.60;12.20;;;4.00;99.90;;;;;;5033285;28;20452;-76
2021/03/25 00:06:05;;;;;;;12.93;11.73;;;4.00;99.90;;;;;;5029117;28;20439;-77
2021/03/25 00:08:31;;;;;;;13.07;11.73;;;4.00;99.90;;;;;;5033621;28;20432;-77
2021/03/25 00:10:57;;;;;;;14.07;11.80;;;4.00;99.90;;;;;;5028274;28;20500;-77
2021/03/25 00:13:24;;;;;;;12.33;11.23;;;4.00;99.90;;;;;;5030811;28;20453;-77
2021/03/25 00:15:51;;;;;;;13.90;12.60;;;3.90;99.90;;;;;;5028279;28;20463;-77
2021/03/25 00:18:18;;;;;;;14.00;12.50;;;3.90;99.90;;;;;;5029929;28;20455;-77
2021/03/25 00:20:46;;;;;;;12.83;11.73;;;3.90;99.90;;;;;;5028368;28;20458;-76
2021/03/25 00:23:13;;;;;;;13.90;12.60;;;3.90;99.90;;;;;;5029948;28;20439;-77
2021/03/25 00:25:41;;;;;;;13.50;12.20;;;3.90;99.90;;;;;;5033846;28;20849;-77
2021/03/25 00:28:09;;;;;;;13.63;12.33;;;3.90;99.90;;;;;;5033862;28;20453;-77
2021/03/25 00:30:36;;;;;;;13.27;11.97;;;3.80;99.90;;;;;;5040767;28;21028;-77
2021/03/25 00:33:06;;;;;;;14.83;13.33;;;3.80;99.90;;;;;;5032129;28;20454;-77
2021/03/25 00:35:33;;;;;;;15.27;13.37;;;3.80;99.90;;;;;;5028317;28;20479;-77
2021/03/25 00:38:01;;;;;;;14.50;13.00;;;3.70;99.90;;;;;;5034316;28;20439;-77
2021/03/25 00:40:27;;;;;;;14.93;13.43;;;3.70;99.90;;;;;;5030403;28;20827;-77
2021/03/25 00:42:54;;;;;;;15.07;13.50;;;3.60;99.90;;;;;;5030678;28;20461;-79
2021/03/25 00:45:24;;;;;;;14.30;12.90;;;3.50;99.90;;;;;;5031216;28;20432;-78
2021/03/25 00:47:51;;;;;;;14.40;11.83;;;3.50;99.90;;;;;;5028034;28;20450;-77
2021/03/25 00:53:17;;;;;;;14.87;11.70;;;3.40;99.90;;;;;;4973830;28;20437;-78
2021/03/25 00:55:44;;;;;;;13.47;12.07;;;3.30;99.90;;;;;;4970634;28;20472;-77
2021/03/25 00:58:10;;;;;;;15.83;13.27;;;3.10;99.90;;;;;;4973433;28;20520;-78
2021/03/25 01:00:39;;;;;;;13.43;11.90;;;3.00;99.90;;;;;;4970436;28;20469;-77
2021/03/25 01:03:07;;;;;;;13.73;12.33;;;3.00;99.90;;;;;;4974117;28;20449;-78
2021/03/25 01:05:33;;;;;;;13.80;12.60;;;2.90;99.90;;;;;;4975046;28;20441;-79
2021/03/25 01:08:00;;;;;;;15.80;14.30;;;2.90;99.90;;;;;;4974242;28;20473;-78
2021/03/25 01:10:30;;;;;;;14.73;13.13;;;2.90;99.90;;;;;;4989788;28;20532;-78
2021/03/25 01:12:59;;;;;;;14.97;13.47;;;3.00;99.90;;;;;;4973720;28;20461;-78
2021/03/25 01:15:26;;;;;;;14.13;12.83;;;3.00;99.90;;;;;;4989829;28;20465;-78
2021/03/25 01:17:54;;;;;;;13.50;12.20;;;3.00;99.90;;;;;;4973944;28;20897;-78
2021/03/25 01:20:24;;;;;;;13.40;12.20;;;3.00;99.90;;;;;;4973745;28;20548;-78
2021/03/25 01:22:51;;;;;;;13.40;12.10;;;2.90;99.90;;;;;;4975236;28;20437;-79
2021/03/25 01:25:19;;;;;;;13.50;12.30;;;3.00;99.90;;;;;;4974848;28;20433;-78
2021/03/25 01:27:47;;;;;;;14.57;13.07;;;3.10;99.90;;;;;;4973712;28;20453;-78
2021/03/25 01:30:16;;;;;;;12.93;11.73;;;3.10;99.90;;;;;;4973408;28;20513;-79
2021/03/25 01:32:43;;;;;;;14.27;12.87;;;3.10;99.90;;;;;;4973653;28;20477;-78
2021/03/25 01:35:11;;;;;;;14.20;12.90;;;3.10;99.90;;;;;;4973961;28;20438;-78
2021/03/25 01:37:38;;;;;;;13.70;12.43;;;3.10;99.90;;;;;;4973504;28;20505;-78
2021/03/25 01:40:13;;;;;;;13.37;11.97;;;3.10;99.90;;;;;;4973466;28;20565;-78
2021/03/25 01:42:40;;;;;;;14.23;12.83;;;3.00;99.90;;;;;;4989412;28;20473;-78
2021/03/25 01:45:40;;;;;;;13.33;11.97;;;3.00;99.90;;;;;;4973300;28;20533;-78
2021/03/25 01:48:09;;;;;;;14.43;13.00;;;3.00;99.90;;;;;;4927342;28;20499;-78
2021/03/25 01:50:39;;;;;;;13.23;12.03;;;3.00;99.90;;;;;;4973364;28;20465;-78
2021/03/25 01:53:30;;;;;;;13.63;12.43;;;3.00;99.90;;;;;;4989475;28;20541;-78
2021/03/25 01:56:05;;;;;;;14.50;13.10;;;3.00;99.90;;;;;;4972918;28;21026;-78
2021/03/25 01:59:04;;;;;;;14.30;13.13;;;3.00;99.90;;;;;;4973290;28;20451;-78
2021/03/25 02:01:40;;;;;;;14.77;13.37;;;3.00;99.90;;;;;;4972352;28;20472;-78
2021/03/25 02:04:20;;;;;;;15.10;13.63;;;3.00;99.90;;;;;;4972701;28;20452;-79
2021/03/25 02:07:01;;;;;;;13.83;12.53;;;3.10;99.90;;;;;;4988580;28;20454;-78
2021/03/25 02:09:43;;;;;;;13.70;12.50;;;3.10;99.90;;;;;;4972186;28;20460;-78
2021/03/25 02:12:49;;;;;;;13.47;12.07;;;3.20;99.90;;;;;;4964896;28;20472;-78
2021/03/25 02:15:23;;;;;;;13.37;12.17;;;3.20;99.90;;;;;;4971736;28;20527;-78
2021/03/25 02:17:56;;;;;;;13.50;12.30;;;3.20;99.90;;;;;;4972212;28;20456;-79
2021/03/25 02:21:12;;;;;;;14.70;13.20;;;3.20;99.90;;;;;;4971972;28;20551;-78
2021/03/25 02:24:07;;;;;;;13.60;12.30;;;3.30;99.90;;;;;;4961017;28;20491;-78
2021/03/25 02:26:38;;;;;;;13.40;12.20;;;3.30;99.90;;;;;;4971870;28;20450;-78
2021/03/25 02:29:32;;;;;;;14.13;12.67;;;3.30;99.90;;;;;;4972139;28;20451;-79
2021/03/25 02:32:03;;;;;;;13.83;12.63;;;3.20;99.90;;;;;;4975509;28;20509;-78
2021/03/25 02:34:34;;;;;;;14.43;13.03;;;3.10;99.90;;;;;;4988341;28;20464;-77
2021/03/25 02:37:07;;;;;;;12.87;11.77;;;3.10;99.90;;;;;;4972180;28;21067;-79
2021/03/25 02:39:44;;;;;;;13.80;12.43;;;3.00;99.90;;;;;;4969453;28;20454;-78
2021/03/25 02:42:31;;;;;;;13.60;12.40;;;3.00;99.90;;;;;;4971964;28;20897;-78
2021/03/25 02:45:01;;;;;;;12.77;11.67;;;2.90;99.90;;;;;;4972051;28;20480;-76
2021/03/25 02:47:32;;;;;;;13.13;12.07;;;2.90;99.90;;;;;;4988363;28;20581;-79
2021/03/25 02:50:06;;;;;;;13.63;12.23;;;2.90;99.90;;;;;;4988164;28;20829;-78
2021/03/25 02:52:37;;;;;;;14.20;12.93;;;2.80;99.90;;;;;;4972055;28;20496;-78
2021/03/25 02:55:10;;;;;;;14.37;13.10;;;2.90;99.90;;;;;;4968389;28;20456;-78
2021/03/25 02:57:49;;;;;;;13.93;12.40;;;2.80;99.90;;;;;;4972438;28;20447;-79
2021/03/25 03:00:27;;;;;;;14.57;13.20;;;2.80;99.90;;;;;;4977345;28;20464;-79
2021/03/25 03:03:00;;;;;;;13.07;11.87;;;2.80;99.90;;;;;;4972261;28;20500;-78
2021/03/25 03:05:49;;;;;;;14.40;13.00;;;2.70;99.90;;;;;;4973183;28;20443;-77
2021/03/25 03:08:21;;;;;;;14.40;13.00;;;2.60;99.90;;;;;;4971978;28;20449;-77
2021/03/25 03:10:52;;;;;;;14.03;12.73;;;2.60;99.90;;;;;;4971954;28;20505;-78
2021/03/25 03:13:21;;;;;;;15.03;13.10;;;2.50;99.90;;;;;;4971951;28;20844;-78
2021/03/25 03:15:52;;;;;;;14.37;13.17;;;2.50;99.90;;;;;;4988429;28;20479;-79
2021/03/25 03:18:30;;;;;;;14.40;13.07;;;2.50;99.90;;;;;;4972265;28;20445;-78
2021/03/25 03:21:07;;;;;;;15.17;13.97;;;2.50;99.90;;;;;;4969915;28;20476;-78
2021/03/25 03:23:47;;;;;;;16.30;14.70;;;2.40;99.90;;;;;;4980922;28;20482;-79
2021/03/25 03:26:20;;;;;;;14.20;12.90;;;2.40;99.90;;;;;;4975266;28;20454;-78
2021/03/25 03:28:49;;;;;;;14.50;13.20;;;2.40;99.90;;;;;;4975650;28;20497;-78
2021/03/25 03:31:31;;;;;;;16.20;13.77;;;2.40;99.90;;;;;;4975603;28;20513;-78
2021/03/25 03:34:15;;;;;;;15.60;14.20;;;2.40;99.90;;;;;;4975882;28;20853;-78
2021/03/25 03:36:45;;;;;;;15.27;13.70;;;2.40;99.90;;;;;;4975395;28;20470;-78
2021/03/25 03:39:16;;;;;;;15.13;13.47;;;2.40;99.90;;;;;;4991804;28;20544;-79
2021/03/25 03:41:49;;;;;;;15.17;13.87;;;2.30;99.90;;;;;;4992562;28;20527;-77
2021/03/25 03:44:21;;;;;;;13.93;12.47;;;2.30;99.90;;;;;;4991341;28;20454;-77
2021/03/25 03:46:49;;;;;;;15.03;13.63;;;2.30;99.90;;;;;;4980230;28;20442;-79
2021/03/25 03:49:20;;;;;;;15.50;14.13;;;2.20;99.90;;;;;;4986658;28;20463;-79
2021/03/25 03:51:59;;;;;;;13.67;12.57;;;2.20;99.90;;;;;;4981684;28;20477;-79
2021/03/25 03:54:26;;;;;;;14.63;13.33;;;2.20;99.90;;;;;;4985091;28;20521;-81
2021/03/25 03:57:01;;;;;;;14.53;13.23;;;2.20;99.90;;;;;;4970628;28;20612;-81
2021/03/25 03:59:41;;;;;;;15.60;14.00;;;2.20;99.90;;;;;;4994472;28;20487;-80
2021/03/25 04:02:18;;;;;;;14.57;13.27;;;2.10;99.90;;;;;;4976829;28;20495;-81
2021/03/25 04:04:52;;;;;;;15.40;14.00;;;2.20;99.90;;;;;;4991959;28;20504;-81
2021/03/25 04:07:29;;;;;;;16.13;14.50;;;2.10;99.90;;;;;;4975963;28;20913;-77
2021/03/25 04:10:14;;;;;;;15.10;13.57;;;2.10;99.90;;;;;;4974218;28;20492;-78
2021/03/25 04:12:48;;;;;;;13.93;12.63;;;2.10;99.90;;;;;;4973636;28;20554;-78
2021/03/25 04:15:24;;;;;;;14.43;13.13;;;2.20;99.90;;;;;;4973522;28;20456;-79
2021/03/25 04:18:03;;;;;;;15.50;14.03;;;2.20;99.90;;;;;;4990423;28;21181;-78
2021/03/25 04:21:05;;;;;;;14.30;13.00;;;2.20;99.90;;;;;;4972945;28;20881;-82
2021/03/25 04:23:34;;;;;;;14.83;12.83;;;2.20;99.90;;;;;;4973724;28;20500;-78
2021/03/25 04:26:09;;;;;;;14.77;13.27;;;2.20;99.90;;;;;;4971964;28;20481;-78
2021/03/25 04:28:39;;;;;;;15.17;13.70;;;2.10;99.90;;;;;;4966827;28;20455;-78
2021/03/25 04:31:07;;;;;;;15.20;13.87;;;2.00;99.90;;;;;;4972706;28;20476;-77
2021/03/25 04:33:37;;;;;;;16.77;13.37;;;1.90;99.90;;;;;;4974193;28;20803;-78
2021/03/25 04:36:11;;;;;;;14.13;12.83;;;1.80;99.90;;;;;;4972537;28;20472;-78
2021/03/25 04:38:39;;;;;;;14.40;13.10;;;1.80;99.90;;;;;;4974164;28;20450;-78
2021/03/25 04:41:07;;;;;;;13.67;12.47;;;1.80;99.90;;;;;;4974592;28;20823;-78
2021/03/25 04:43:33;;;;;;;14.40;13.00;;;1.70;99.90;;;;;;4972081;28;20772;-78
2021/03/25 04:46:07;;;;;;;14.47;13.07;;;1.80;99.90;;;;;;4974347;28;20438;-80
2021/03/25 04:48:41;;;;;;;15.20;13.80;;;1.80;99.90;;;;;;4974704;28;20922;-78
2021/03/25 04:51:13;;;;;;;13.67;12.47;;;1.90;99.90;;;;;;4974458;28;20464;-78
2021/03/25 04:53:41;;;;;;;13.93;12.63;;;1.90;99.90;;;;;;4967264;28;20443;-77
2021/03/25 04:56:12;;;;;;;13.90;12.70;;;1.90;99.90;;;;;;4974461;28;20477;-78
2021/03/25 04:58:43;;;;;;;14.83;13.43;;;1.80;99.90;;;;;;4965957;28;20455;-78
2021/03/25 05:01:14;;;;;;;15.17;13.70;;;1.80;99.90;;;;;;4974382;28;20453;-79
2021/03/25 05:03:41;;;;;;;16.57;14.83;;;1.70;99.90;;;;;;4973248;28;20441;-78
2021/03/25 05:06:18;;;;;;;15.53;14.13;;;1.70;99.90;;;;;;4972955;28;20453;-78
2021/03/25 05:08:45;;;;;;;15.20;13.90;;;1.60;99.90;;;;;;4978376;28;20439;-78
2021/03/25 05:11:15;;;;;;;15.33;13.87;;;1.60;99.90;;;;;;4976998;28;20492;-78
2021/03/25 05:13:44;;;;;;;15.77;14.30;;;1.60;99.90;;;;;;4973094;28;20452;-78
2021/03/25 05:16:24;;;;;;;16.20;14.60;;;1.70;99.90;;;;;;4973954;28;20990;-78
2021/03/25 05:19:03;;;;;;;15.60;14.00;;;1.80;99.90;;;;;;4974451;28;20487;-79
2021/03/25 05:21:41;;;;;;;16.17;13.60;;;1.80;99.90;;;;;;4973336;28;20477;-77
2021/03/25 05:24:17;;;;;;;15.53;14.03;;;1.80;99.90;;;;;;4972812;28;20461;-78
2021/03/25 05:26:50;;;;;;;15.87;14.27;;;1.80;99.90;;;;;;4967946;28;20766;-78
2021/03/25 05:29:17;;;;;;;17.07;14.50;;;1.80;99.90;;;;;;4973884;28;20450;-77
2021/03/25 05:31:46;;;;;;;15.00;13.63;;;1.80;99.90;;;;;;4973932;28;20465;-79
2021/03/25 05:34:15;;;;;;;17.57;13.60;;;1.90;99.90;;;;;;4973097;28;20577;-78
2021/03/25 05:36:42;;;;;;;17.10;14.33;;;1.90;99.90;;;;;;4973703;28;20469;-77
2021/03/25 05:39:09;;;;;;;14.83;13.43;;;2.00;99.90;;;;;;4972491;28;20457;-78
2021/03/25 05:41:44;;;;;;;15.63;14.17;;;2.00;99.90;;;;;;4972646;28;20474;-77
2021/03/25 05:44:41;;;;;;;14.77;13.20;;;2.10;99.90;;;;;;4972259;28;20453;-78
2021/03/25 05:47:34;;;;;;;15.90;14.27;;;2.10;99.90;;;;;;4974097;28;20929;-78
2021/03/25 05:50:11;;;;;;;20.27;15.67;;;2.20;99.90;;;;;;4984491;28;20446;-78
2021/03/25 05:52:48;;;;;;;16.90;15.13;;;2.30;99.90;;;;;;4966047;28;20985;-77
2021/03/25 05:55:46;;;;;;;15.50;14.00;;;2.40;99.90;;;;;;4973516;28;20444;-78
2021/03/25 05:58:22;;;;;;;15.03;13.63;;;2.40;99.90;;;;;;4972099;28;20458;-77
2021/03/25 06:01:00;;;;;;;14.93;13.27;;;2.50;99.90;;;;;;4973704;28;20462;-77
2021/03/25 06:03:28;;;;;;;14.23;12.93;;;2.70;99.90;;;;;;4972734;28;20442;-78
2021/03/25 06:05:58;;;;;;;14.37;12.97;;;2.80;99.90;;;;;;4973400;28;20807;-78
2021/03/25 06:08:48;;;;;;;15.13;13.73;;;3.00;99.90;;;;;;4989223;28;21032;-78
2021/03/25 06:11:28;;;;;;;14.70;12.87;;;3.20;99.90;;;;;;4967403;28;20483;-77
2021/03/25 06:14:05;;;;;;;13.80;12.60;;;3.50;99.90;;;;;;4968549;28;20443;-77
2021/03/25 06:16:44;;;;;;;14.07;12.77;;;3.80;99.90;;;;;;4973169;28;20483;-78
2021/03/25 06:19:43;;;;;;;14.67;13.17;;;4.10;99.90;;;;;;4973426;28;20431;-78
2021/03/25 06:22:17;;;;;;;14.50;13.00;;;4.40;99.90;;;;;;4955933;28;20472;-78
2021/03/25 06:25:28;;;;;;;13.33;12.03;;;4.70;99.90;;;;;;4971845;28;20445;-79
2021/03/25 06:28:12;;;;;;;14.17;12.77;;;4.90;99.90;;;;;;4972246;28;20467;-78
2021/03/25 06:30:41;;;;;;;13.53;12.33;;;5.10;99.90;;;;;;4970054;28;20491;-78
2021/03/25 06:33:17;;;;;;;13.90;12.60;;;5.30;99.90;;;;;;4971938;28;20512;-78
2021/03/25 06:35:47;;;;;;;14.17;12.77;;;5.40;99.90;;;;;;4965423;28;20477;-78
2021/03/25 06:38:18;;;;;;;14.03;12.83;;;5.50;99.90;;;;;;4972118;28;20453;-78
2021/03/25 06:40:51;;;;;;;12.83;11.73;;;5.60;99.90;;;;;;4972232;28;21002;-78
2021/03/25 06:43:25;;;;;;;13.37;12.00;;;5.80;99.90;;;;;;4973686;28;20200;-79
2021/03/25 06:45:57;;;;;;;13.87;12.53;;;5.90;99.90;;;;;;4978852;28;20197;-77
2021/03/25 06:48:34;;;;;;;12.70;11.50;;;6.00;99.90;;;;;;4972417;28;20206;-79
2021/03/25 06:51:13;;;;;;;11.70;10.60;;;6.00;99.90;;;;;;5002048;22;20485;-77
2021/03/25 06:53:40;;;;;;;12.93;11.70;;;6.20;99.90;;;;;;5036610;28;20261;-79
2021/03/25 06:56:11;;;;;;;13.47;12.20;;;6.40;99.90;;;;;;5033293;28;20240;-77
2021/03/25 06:58:45;;;;;;;12.73;9.27;;;6.60;99.90;;;;;;5037067;28;20278;-78
2021/03/25 07:01:23;;;;;;;10.60;9.57;;;6.70;99.90;;;;;;5039818;28;20204;-77
2021/03/25 07:03:52;;;;;;;12.90;11.70;;;6.90;99.90;;;;;;5049507;28;20199;-77
2021/03/25 07:06:19;;;;;;;12.87;11.77;;;7.00;99.90;;;;;;5041467;28;20200;-77
2021/03/25 07:08:46;;;;;;;11.10;10.10;;;7.20;99.90;;;;;;5061268;28;20255;-77
2021/03/25 07:11:16;;;;;;;11.53;10.53;;;7.40;99.90;;;;;;5039281;28;20268;-78
2021/03/25 07:13:46;;;;;;;9.90;8.87;;;7.60;99.90;;;;;;5053752;28;20289;-77
2021/03/25 07:16:14;;;;;;;12.00;11.07;;;7.80;99.90;;;;;;5037843;28;20206;-77
2021/03/25 07:18:51;;;;;;;12.00;11.00;;;8.00;99.90;;;;;;5047228;28;20205;-78
2021/03/25 07:21:31;;;;;;;12.77;11.67;;;8.30;99.90;;;;;;5047306;28;20221;-78
2021/03/25 07:23:59;;;;;;;12.47;11.37;;;8.50;99.90;;;;;;5037789;28;20198;-77
2021/03/25 07:26:31;;;;;;;13.47;12.27;;;8.80;99.90;;;;;;5055532;28;20190;-77
2021/03/25 07:29:05;;;;;;;13.17;12.17;;;9.10;99.90;;;;;;5044039;28;20191;-77
2021/03/25 07:31:36;;;;;;;8.60;7.70;;;9.40;99.90;;;;;;5055598;28;20269;-77
2021/03/25 07:34:03;;;;;;;13.23;10.90;;;9.80;99.90;;;;;;5047873;28;20672;-77
2021/03/25 07:36:31;;;;;;;13.97;12.50;;;10.10;99.90;;;;;;5050053;28;20214;-78
2021/03/25 07:39:05;;;;;;;10.00;8.10;;;10.40;99.90;;;;;;5050706;28;20198;-77
2021/03/25 07:41:33;;;;;;;13.10;11.90;;;10.60;99.90;;;;;;5042720;28;20223;-79
2021/03/25 07:44:03;;;;;;;12.43;10.77;;;10.70;99.90;;;;;;5044305;28;20188;-78
2021/03/25 07:46:34;;;;;;;11.97;10.77;;;11.00;99.90;;;;;;5048508;28;20540;-79
2021/03/25 07:49:14;;;;;;;12.47;10.37;;;11.20;99.90;;;;;;5046162;28;20584;-79
2021/03/25 07:51:49;;;;;;;8.97;8.07;;;11.50;99.90;;;;;;5042941;28;20223;-78
2021/03/25 07:54:24;;;;;;;12.57;11.47;;;11.80;99.90;;;;;;5050248;28;20278;-78
2021/03/25 07:56:58;;;;;;;13.53;12.37;;;12.10;99.90;;;;;;5041364;28;20644;-79
2021/03/25 07:59:35;;;;;;;12.93;11.83;;;12.20;99.90;;;;;;5048293;28;20206;-78
2021/03/25 08:02:01;;;;;;;8.00;6.87;;;12.30;99.90;;;;;;5046858;28;20224;-79
2021/03/25 08:04:30;;;;;;;7.90;5.70;;;12.60;99.90;;;;;;5042658;28;20193;-78
2021/03/25 08:07:04;;;;;;;8.10;5.83;;;12.90;99.90;;;;;;5068924;28;20201;-78
2021/03/25 08:09:41;;;;;;;10.70;6.43;;;13.00;99.90;;;;;;5059317;28;20208;-78
2021/03/25 08:12:18;;;;;;;8.37;6.37;;;13.10;99.90;;;;;;5049663;28;20225;-79
2021/03/25 08:14:46;;;;;;;9.10;6.37;;;13.10;99.90;;;;;;5048661;28;20194;-79
2021/03/25 08:17:21;;;;;;;9.27;5.90;;;13.30;99.90;;;;;;5039249;28;20707;-78
2021/03/25 08:19:56;;;;;;;8.93;6.30;;;13.50;99.90;;;;;;5053199;28;20219;-78
2021/03/25 08:22:45;;;;;;;9.47;6.10;;;13.60;99.90;;;;;;5058176;28;20215;-79
2021/03/25 08:25:27;;;;;;;8.63;6.07;;;13.60;99.90;;;;;;5047818;28;20205;-79
2021/03/25 08:28:02;;;;;;;9.50;5.30;;;13.80;99.90;;;;;;5043268;28;20205;-78
2021/03/25 08:30:49;;;;;;;9.37;5.83;;;14.10;99.90;;;;;;5039682;28;20702;-78
2021/03/25 08:33:27;;;;;;;9.03;6.00;;;14.30;99.90;;;;;;5055693;28;20773;-78
2021/03/25 08:36:02;;;;;;;7.13;5.60;;;14.60;99.90;;;;;;5051220;28;20279;-79
2021/03/25 08:38:54;;;;;;;8.83;5.70;;;14.80;99.90;;;;;;5047323;28;20199;-79
2021/03/25 08:41:24;;;;;;;6.80;5.47;;;14.90;99.90;;;;;;5046415;28;20226;-78
2021/03/25 08:43:59;;;;;;;5.90;5.30;;;15.10;99.90;;;;;;5044990;28;20202;-78
2021/03/25 08:46:29;;;;;;;11.03;6.23;;;15.20;99.90;;;;;;5043029;28;20184;-78
2021/03/25 08:48:58;;;;;;;7.67;5.47;;;15.30;99.90;;;;;;5043984;28;20203;-78
2021/03/25 08:51:27;;;;;;;6.87;5.50;;;15.10;99.90;;;;;;5046438;28;20232;-79
2021/03/25 08:53:59;;;;;;;9.20;5.60;;;15.20;99.90;;;;;;5045297;28;20199;-78
2021/03/25 08:56:33;;;;;;;7.27;5.50;;;15.60;99.90;;;;;;5048394;28;20211;-78
2021/03/25 08:59:03;;;;;;;5.93;5.13;;;15.70;99.90;;;;;;5049349;28;20188;-78
2021/03/25 09:01:34;;;;;;;8.10;7.27;;;15.90;99.90;;;;;;5048658;28;20230;-78
2021/03/25 09:04:08;;;;;;;10.17;9.23;;;16.10;99.90;;;;;;5048929;28;20676;-78
2021/03/25 09:06:38;;;;;;;8.93;7.43;;;16.20;99.90;;;;;;5050989;28;20226;-80
2021/03/25 09:09:27;;;;;;;9.67;8.73;;;16.70;99.90;;;;;;5055616;28;20638;-80
2021/03/25 09:11:53;;;;;;;11.13;10.17;;;16.70;99.90;;;;;;5051248;28;20225;-79
2021/03/25 09:14:22;;;;;;;12.13;10.83;;;16.90;99.90;;;;;;5049627;28;20195;-79
2021/03/25 09:16:50;;;;;;;10.97;10.17;;;17.30;99.90;;;;;;5046417;28;20210;-79
2021/03/25 09:19:19;;;;;;;11.63;10.60;;;17.50;99.90;;;;;;5044775;28;20568;-79
2021/03/25 09:21:48;;;;;;;10.70;9.80;;;17.70;99.90;;;;;;5045688;28;20212;-79
2021/03/25 09:24:15;;;;;;;10.20;9.17;;;17.90;99.90;;;;;;5044263;28;20191;-79
2021/03/25 09:26:50;;;;;;;10.80;8.87;;;18.00;99.90;;;;;;5048022;28;20197;-79
2021/03/25 09:29:18;;;;;;;10.50;9.57;;;17.90;99.90;;;;;;5047301;28;20209;-79
2021/03/25 09:32:28;;;;;;;11.03;10.00;;;17.80;99.90;;;;;;5047654;28;20690;-80
2021/03/25 09:34:54;;;;;;;10.17;9.27;;;17.90;99.90;;;;;;5041750;28;20203;-79
2021/03/25 09:37:23;;;;;;;11.43;9.50;;;17.90;99.90;;;;;;5053722;28;20223;-80
2021/03/25 09:40:13;;;;;;;9.57;8.77;;;18.00;99.90;;;;;;5044042;28;20238;-79
2021/03/25 09:42:40;;;;;;;10.30;8.63;;;18.20;99.90;;;;;;5066062;28;20219;-79
2021/03/25 09:45:34;;;;;;;10.00;8.37;;;18.40;99.90;;;;;;5053790;28;20191;-79
2021/03/25 09:48:04;;;;;;;9.40;7.57;;;18.50;99.90;;;;;;5062091;28;20202;-79
2021/03/25 09:50:31;;;;;;;8.13;6.93;;;18.60;99.80;;;;;;5048158;28;20215;-80
2021/03/25 09:53:17;;;;;;;8.00;6.77;;;18.70;99.40;;;;;;5043134;28;20223;-79
2021/03/25 09:56:00;;;;;;;7.40;5.73;;;18.60;99.40;;;;;;5048823;28;20197;-78
2021/03/25 09:58:45;;;;;;;7.97;5.43;;;18.80;99.60;;;;;;5044556;28;20613;-79
2021/03/25 10:01:41;;;;;;;9.00;6.80;;;18.90;99.80;;;;;;5045241;28;20187;-78
2021/03/25 10:04:29;;;;;;;8.27;7.03;;;18.90;99.00;;;;;;5044220;28;20207;-79
2021/03/25 10:07:03;;;;;;;8.60;7.70;;;18.80;98.10;;;;;;5041002;28;20398;-78
2021/03/25 10:10:11;;;;;;;10.30;8.07;;;18.80;97.30;;;;;;5045487;28;20630;-78
2021/03/25 10:12:54;;;;;;;9.13;7.90;;;18.70;97.70;;;;;;4994061;28;20222;-79
2021/03/25 10:15:44;;;;;;;10.40;9.60;;;18.60;97.70;;;;;;5040506;28;20291;-78
2021/03/25 10:18:12;;;;;;;11.13;10.17;;;18.50;97.70;;;;;;5046185;28;20233;-79
2021/03/25 10:20:58;;;;;;;11.37;10.27;;;18.50;97.40;;;;;;5045027;28;20203;-79
2021/03/25 10:23:27;;;;;;;10.10;9.20;;;18.50;98.20;;;;;;5040355;28;20231;-79
2021/03/25 10:25:56;;;;;;;11.40;10.37;;;18.50;97.70;;;;;;5050505;28;20200;-79
2021/03/25 10:28:27;;;;;;;11.80;10.80;;;18.40;98.30;;;;;;5046689;28;20195;-79
2021/03/25 10:30:59;;;;;;;11.67;10.73;;;18.40;98.30;;;;;;5048953;28;21214;-79
2021/03/25 10:33:26;;;;;;;10.33;9.50;;;18.40;98.20;;;;;;5048579;28;20205;-79
2021/03/25 10:35:55;;;;;;;10.67;9.77;;;18.40;97.50;;;;;;5049624;28;20206;-79
2021/03/25 10:38:25;;;;;;;10.97;9.97;;;18.30;97.70;;;;;;5052111;28;20702;-78
2021/03/25 10:40:58;;;;;;;13.33;12.30;;;18.40;97.70;;;;;;5052278;28;20202;-78
2021/03/25 10:43:30;;;;;;;7.33;6.10;;;18.50;97.40;;;;;;5053336;28;20210;-78
2021/03/25 10:45:59;;;;;;;11.43;10.33;;;18.40;96.60;;;;;;5051070;28;20191;-79
2021/03/25 10:48:30;;;;;;;10.50;9.47;;;18.50;96.60;;;;;;5046982;28;20679;-78
2021/03/25 10:51:01;;;;;;;10.23;9.07;;;18.40;96.10;;;;;;5049528;28;20184;-79
2021/03/25 10:53:32;;;;;;;11.50;10.40;;;18.40;95.50;;;;;;5061190;28;20689;-78
2021/03/25 10:56:06;;;;;;;10.70;9.70;;;18.40;95.80;;;;;;5053140;28;20202;-79
2021/03/25 10:58:37;;;;;;;10.57;9.60;;;18.50;96.10;;;;;;5054963;28;20213;-79
2021/03/25 11:01:14;;;;;;;11.07;10.17;;;18.60;96.20;;;;;;5049290;28;20203;-80
2021/03/25 11:03:44;;;;;;;8.23;6.93;;;18.70;95.80;;;;;;5055658;28;20194;-79
2021/03/25 11:06:20;;;;;;;9.50;8.50;;;18.60;94.70;;;;;;5047626;28;20216;-79
2021/03/25 11:08:46;;;;;;;10.40;9.40;;;18.70;94.90;;;;;;5051453;28;20199;-79
2021/03/25 11:11:17;;;;;;;10.30;9.47;;;18.60;94.60;;;;;;5059675;28;20556;-80
2021/03/25 11:13:54;;;;;;;11.00;9.90;;;18.70;95.20;;;;;;5059377;28;20203;-79
2021/03/25 11:16:22;;;;;;;10.17;9.27;;;18.70;95.30;;;;;;5046742;28;20211;-79
2021/03/25 11:18:53;;;;;;;10.33;9.33;;;18.70;94.40;;;;;;5051106;28;20210;-79
2021/03/25 11:21:27;;;;;;;10.50;9.43;;;18.70;94.80;;;;;;5048193;28;20219;-79
2021/03/25 11:24:06;;;;;;;10.80;9.70;;;18.70;94.90;;;;;;5060184;28;20191;-79
2021/03/25 11:26:32;;;;;;;11.43;9.90;;;18.90;95.10;;;;;;5047991;28;20671;-79
2021/03/25 11:29:01;;;;;;;10.60;9.57;;;18.90;95.00;;;;;;5047762;28;20668;-80
2021/03/25 11:31:30;;;;;;;9.90;9.00;;;18.90;94.60;;;;;;5046679;28;20301;-79
2021/03/25 11:33:57;;;;;;;9.07;8.27;;;18.80;94.10;;;;;;5056949;28;20196;-79
2021/03/25 11:36:48;;;;;;;8.67;7.97;;;18.80;94.10;;;;;;5044748;28;20228;-79
2021/03/25 11:39:20;;;;;;;9.03;8.33;;;18.80;94.10;;;;;;5035845;28;20262;-79
2021/03/25 11:41:47;;;;;;;9.03;8.23;;;18.90;94.00;;;;;;5046112;28;20329;-78
2021/03/25 11:44:43;;;;;;;9.33;8.40;;;18.90;93.70;;;;;;5043258;28;20193;-80
2021/03/25 11:47:42;;;;;;;10.47;9.57;;;18.80;93.10;;;;;;5057738;28;20187;-79
2021/03/25 11:50:32;;;;;;;9.53;8.83;;;18.70;93.80;;;;;;5060767;28;20302;-79
2021/03/25 11:53:02;;;;;;;9.40;8.70;;;18.70;94.10;;;;;;5050777;28;20261;-79
2021/03/25 11:55:34;;;;;;;9.53;8.73;;;18.70;94.00;;;;;;5042200;28;20199;-79
2021/03/25 11:58:16;;;;;;;8.90;8.10;;;18.60;94.10;;;;;;5043008;28;20212;-79
2021/03/25 12:00:57;;;;;;;9.47;8.67;;;18.40;94.20;;;;;;5054226;28;20231;-79
2021/03/25 12:03:26;;;;;;;8.43;7.80;;;18.30;94.00;;;;;;5043809;28;20192;-79
2021/03/25 12:05:53;;;;;;;9.33;8.57;;;18.10;94.10;;;;;;5045893;28;20214;-80
2021/03/25 12:08:32;;;;;;;9.40;8.50;;;18.10;94.30;;;;;;5046405;28;20211;-79
2021/03/25 12:11:06;;;;;;;8.87;8.10;;;18.10;93.80;;;;;;5048505;28;20205;-79
2021/03/25 12:13:33;;;;;;;8.97;8.17;;;18.00;93.90;;;;;;5047919;28;20191;-78
2021/03/25 12:16:00;;;;;;;9.13;8.33;;;18.20;94.10;;;;;;5045303;28;20199;-79
2021/03/25 12:18:29;;;;;;;9.20;8.40;;;18.30;94.30;;;;;;5044106;28;20199;-79
2021/03/25 12:20:59;;;;;;;9.83;8.93;;;18.40;93.20;;;;;;5044482;28;20207;-80
2021/03/25 12:23:29;;;;;;;10.20;8.97;;;18.40;92.80;;;;;;5052820;28;20252;-80
2021/03/25 12:25:58;;;;;;;9.53;8.63;;;18.50;92.40;;;;;;5052354;28;20210;-80
2021/03/25 12:28:26;;;;;;;9.30;8.50;;;18.60;91.40;;;;;;5039325;28;20195;-79
2021/03/25 12:30:53;;;;;;;9.40;8.50;;;18.60;92.40;;;;;;5051232;28;20679;-78
2021/03/25 12:33:21;;;;;;;8.63;8.00;;;18.60;91.70;;;;;;5046741;28;20230;-79
2021/03/25 12:35:48;;;;;;;9.40;8.60;;;18.60;91.40;;;;;;5043548;28;20203;-79
2021/03/25 12:38:15;;;;;;;8.90;8.20;;;18.60;91.40;;;;;;5041992;28;20204;-78
2021/03/25 12:40:43;;;;;;;9.10;8.40;;;18.60;91.30;;;;;;5045541;28;20591;-78
2021/03/25 12:43:10;;;;;;;9.80;8.90;;;18.60;91.20;;;;;;5041790;28;20238;-80
2021/03/25 12:45:38;;;;;;;9.10;8.40;;;18.60;91.70;;;;;;5045860;28;20199;-79
2021/03/25 12:48:06;;;;;;;8.63;7.93;;;18.70;91.10;;;;;;5054076;28;20222;-79
2021/03/25 12:50:32;;;;;;;8.93;8.23;;;18.50;91.30;;;;;;5043378;28;20667;-79
2021/03/25 12:52:59;;;;;;;8.60;7.90;;;18.60;91.60;;;;;;5082183;23;20230;-77
2021/03/25 12:55:26;;;;;;;8.53;7.83;;;18.60;91.40;;;;;;5063733;28;20210;-77
2021/03/25 12:57:55;;;;;;;9.17;8.30;;;18.60;91.70;;;;;;5063534;28;20268;-78
2021/03/25 13:00:28;;;;;;;8.97;8.17;;;18.60;91.50;;;;;;5067665;28;20669;-77
2021/03/25 13:02:55;;;;;;;8.40;7.80;;;18.70;91.20;;;;;;5057101;28;20698;-77
2021/03/25 13:05:22;;;;;;;8.57;7.83;;;18.90;90.70;;;;;;5061677;28;20209;-77
2021/03/25 13:07:48;;;;;;;8.10;7.50;;;18.90;90.20;;;;;;5063419;28;20253;-77
2021/03/25 13:10:17;;;;;;;8.43;7.80;;;18.90;89.50;;;;;;5062048;28;20195;-77
2021/03/25 13:12:43;;;;;;;7.90;7.30;;;19.00;90.00;;;;;;5055570;28;20277;-78
2021/03/25 13:15:11;;;;;;;8.40;7.80;;;19.00;86.40;;;;;;5053514;28;20199;-77